createdAt,value
2018-11-14T00:00:21.377Z,0.00
2018-11-14T00:01:21.322Z,0.00
2018-11-14T00:02:21.265Z,0.00
2018-11-14T00:03:21.208Z,0.00
2018-11-14T00:04:21.151Z,0.00
2018-11-14T00:05:21.097Z,0.00
2018-11-14T00:06:21.045Z,0.00
2018-11-14T00:07:20.994Z,0.00
2018-11-14T00:08:20.925Z,0.00
2018-11-14T00:09:20.873Z,0.00
2018-11-14T00:10:20.814Z,0.00
2018-11-14T00:11:20.757Z,0.00
2018-11-14T00:12:20.699Z,0.00
2018-11-14T00:13:20.643Z,0.00
2018-11-14T00:14:20.589Z,0.00
2018-11-14T00:15:20.530Z,0.00
2018-11-14T00:16:20.477Z,0.00
2018-11-14T00:17:20.418Z,0.00
2018-11-14T00:18:20.366Z,0.00
2018-11-14T00:19:20.314Z,0.00
2018-11-14T00:20:20.248Z,0.00
2018-11-14T00:21:20.191Z,0.00
2018-11-14T00:22:20.136Z,0.00
2018-11-14T00:23:20.080Z,0.00
2018-11-14T00:24:20.045Z,0.00
2018-11-14T00:25:19.965Z,0.00
2018-11-14T00:26:19.910Z,0.00
2018-11-14T00:27:19.853Z,0.00
2018-11-14T00:28:19.879Z,0.00
2018-11-14T00:29:19.749Z,0.00
2018-11-14T00:30:19.855Z,0.00
2018-11-14T00:31:19.628Z,0.00
2018-11-14T00:32:19.569Z,0.00
2018-11-14T00:33:19.514Z,0.00
2018-11-14T00:34:19.476Z,0.00
2018-11-14T00:35:19.401Z,0.00
2018-11-14T00:36:19.349Z,0.00
2018-11-14T00:37:19.288Z,0.00
2018-11-14T00:38:19.232Z,0.00
2018-11-14T00:39:19.174Z,0.00
2018-11-14T00:40:19.119Z,0.00
2018-11-14T00:41:19.061Z,0.00
2018-11-14T00:42:19.005Z,0.00
2018-11-14T00:43:18.948Z,0.00
2018-11-14T00:44:18.891Z,0.00
2018-11-14T00:45:18.835Z,0.00
2018-11-14T00:46:18.779Z,0.00
2018-11-14T00:47:18.725Z,0.00
2018-11-14T00:48:18.668Z,0.00
2018-11-14T00:49:18.609Z,0.00
2018-11-14T00:50:18.553Z,0.00
2018-11-14T00:51:18.495Z,0.00
2018-11-14T00:52:18.439Z,0.00
2018-11-14T00:53:18.390Z,0.00
2018-11-14T00:54:18.327Z,0.00
2018-11-14T00:55:18.270Z,0.00
2018-11-14T00:56:18.214Z,0.00
2018-11-14T00:57:18.171Z,0.00
2018-11-14T00:58:18.100Z,0.00
2018-11-14T00:59:18.047Z,0.00
2018-11-14T01:00:17.987Z,0.00
2018-11-14T01:01:17.936Z,0.00
2018-11-14T01:02:17.874Z,0.00
2018-11-14T01:03:17.816Z,0.00
2018-11-14T01:04:17.761Z,0.00
2018-11-14T01:05:17.714Z,0.00
2018-11-14T01:06:17.649Z,0.00
2018-11-14T01:07:17.591Z,0.00
2018-11-14T01:08:17.535Z,0.00
2018-11-14T01:09:17.479Z,0.00
2018-11-14T01:10:17.427Z,0.00
2018-11-14T01:11:17.365Z,0.00
2018-11-14T01:12:17.308Z,0.00
2018-11-14T01:13:17.364Z,0.00
2018-11-14T01:14:17.195Z,0.00
2018-11-14T01:15:17.138Z,0.00
2018-11-14T01:16:17.084Z,0.00
2018-11-14T01:17:17.030Z,0.00
2018-11-14T01:18:16.968Z,0.00
2018-11-14T01:19:16.911Z,0.00
2018-11-14T01:20:16.855Z,0.00
2018-11-14T01:21:16.800Z,0.00
2018-11-14T01:22:16.742Z,0.00
2018-11-14T01:23:16.687Z,0.00
2018-11-14T01:24:16.631Z,0.00
2018-11-14T01:25:16.571Z,0.00
2018-11-14T01:26:16.516Z,0.00
2018-11-14T01:27:16.458Z,0.00
2018-11-14T01:28:16.404Z,0.00
2018-11-14T01:29:16.383Z,0.00
2018-11-14T01:30:16.288Z,0.00
2018-11-14T01:31:16.235Z,0.00
2018-11-14T01:32:16.175Z,0.00
2018-11-14T01:33:16.119Z,0.00
2018-11-14T01:34:16.063Z,0.00
2018-11-14T01:35:16.004Z,0.00
2018-11-14T01:36:15.948Z,0.00
2018-11-14T01:37:15.891Z,0.00
2018-11-14T01:38:15.836Z,0.00
2018-11-14T01:39:15.778Z,0.00
2018-11-14T01:40:15.722Z,0.00
2018-11-14T01:41:15.667Z,0.00
2018-11-14T01:42:15.608Z,0.00
2018-11-14T01:43:15.551Z,0.00
2018-11-14T01:44:15.494Z,0.00
2018-11-14T01:45:15.439Z,0.00
2018-11-14T01:46:15.382Z,0.00
2018-11-14T01:47:15.323Z,0.00
2018-11-14T01:48:15.267Z,0.00
2018-11-14T01:49:15.212Z,0.00
2018-11-14T01:50:15.157Z,0.00
2018-11-14T01:51:15.097Z,0.00
2018-11-14T01:52:15.042Z,0.00
2018-11-14T01:53:14.984Z,0.00
2018-11-14T01:54:14.928Z,0.00
2018-11-14T01:55:14.944Z,0.00
2018-11-14T01:56:14.814Z,0.00
2018-11-14T01:57:14.756Z,0.00
2018-11-14T01:58:14.703Z,0.00
2018-11-14T01:59:14.645Z,0.00
2018-11-14T02:00:14.588Z,0.00
2018-11-14T02:01:14.531Z,0.00
2018-11-14T02:02:14.474Z,0.00
2018-11-14T02:03:14.417Z,0.00
2018-11-14T02:04:14.361Z,0.00
2018-11-14T02:05:14.305Z,0.00
2018-11-14T02:06:14.247Z,0.00
2018-11-14T02:07:14.191Z,0.00
2018-11-14T02:08:14.133Z,0.00
2018-11-14T02:09:14.076Z,0.00
2018-11-14T02:10:14.019Z,0.00
2018-11-14T02:11:13.961Z,0.00
2018-11-14T02:12:13.906Z,0.00
2018-11-14T02:13:13.849Z,0.00
2018-11-14T02:14:13.793Z,0.00
2018-11-14T02:15:13.734Z,0.00
2018-11-14T02:16:13.677Z,0.00
2018-11-14T02:17:13.622Z,0.00
2018-11-14T02:18:13.568Z,0.00
2018-11-14T02:19:13.508Z,0.00
2018-11-14T02:20:13.450Z,0.00
2018-11-14T02:21:13.395Z,0.00
2018-11-14T02:22:13.338Z,0.00
2018-11-14T02:23:13.280Z,0.00
2018-11-14T02:24:13.227Z,0.00
2018-11-14T02:25:13.167Z,0.00
2018-11-14T02:26:13.114Z,0.00
2018-11-14T02:27:13.055Z,0.00
2018-11-14T02:28:12.998Z,0.00
2018-11-14T02:29:12.939Z,0.00
2018-11-14T02:30:12.887Z,0.00
2018-11-14T02:31:12.826Z,0.00
2018-11-14T02:32:12.771Z,0.00
2018-11-14T02:33:12.712Z,0.00
2018-11-14T02:34:12.660Z,0.00
2018-11-14T02:35:12.599Z,0.00
2018-11-14T02:36:12.541Z,0.00
2018-11-14T02:37:12.487Z,0.00
2018-11-14T02:38:12.429Z,0.00
2018-11-14T02:39:12.371Z,0.00
2018-11-14T02:40:12.314Z,0.00
2018-11-14T02:41:12.260Z,0.00
2018-11-14T02:42:12.213Z,0.00
2018-11-14T02:43:12.147Z,0.00
2018-11-14T02:44:12.087Z,0.00
2018-11-14T02:45:12.031Z,0.00
2018-11-14T02:46:11.985Z,0.00
2018-11-14T02:47:11.917Z,0.00
2018-11-14T02:48:11.858Z,0.00
2018-11-14T02:49:11.803Z,0.00
2018-11-14T02:50:11.745Z,0.00
2018-11-14T02:51:11.687Z,0.00
2018-11-14T02:52:11.631Z,0.00
2018-11-14T02:53:11.574Z,0.00
2018-11-14T02:54:11.518Z,0.00
2018-11-14T02:55:11.462Z,0.00
2018-11-14T02:56:11.406Z,0.00
2018-11-14T02:57:11.347Z,0.00
2018-11-14T02:58:11.290Z,0.00
2018-11-14T02:59:11.232Z,0.00
2018-11-14T03:00:11.176Z,0.00
2018-11-14T03:01:11.119Z,0.00
2018-11-14T03:02:11.062Z,0.00
2018-11-14T03:03:11.009Z,0.00
2018-11-14T03:04:10.950Z,0.00
2018-11-14T03:05:10.901Z,0.00
2018-11-14T03:06:10.835Z,0.00
2018-11-14T03:07:10.778Z,0.00
2018-11-14T03:08:10.723Z,0.00
2018-11-14T03:09:10.664Z,0.00
2018-11-14T03:10:10.609Z,0.00
2018-11-14T03:11:10.553Z,0.00
2018-11-14T03:12:10.547Z,0.00
2018-11-14T03:13:10.435Z,0.00
2018-11-14T03:14:10.391Z,0.00
2018-11-14T03:15:10.320Z,0.00
2018-11-14T03:16:10.265Z,0.00
2018-11-14T03:17:10.208Z,0.00
2018-11-14T03:18:10.152Z,0.00
2018-11-14T03:19:10.097Z,0.00
2018-11-14T03:20:10.040Z,0.00
2018-11-14T03:21:09.982Z,0.00
2018-11-14T03:22:09.926Z,0.00
2018-11-14T03:23:09.867Z,0.00
2018-11-14T03:24:09.811Z,0.00
2018-11-14T03:25:09.752Z,0.00
2018-11-14T03:26:09.695Z,0.00
2018-11-14T03:27:09.637Z,0.00
2018-11-14T03:28:09.583Z,0.00
2018-11-14T03:29:09.536Z,0.00
2018-11-14T03:30:09.468Z,0.00
2018-11-14T03:31:09.412Z,0.00
2018-11-14T03:32:09.571Z,0.00
2018-11-14T03:33:09.296Z,0.00
2018-11-14T03:34:09.239Z,0.00
2018-11-14T03:35:09.182Z,0.00
2018-11-14T03:36:09.126Z,0.00
2018-11-14T03:37:09.069Z,0.00
2018-11-14T03:38:09.010Z,0.00
2018-11-14T03:39:08.954Z,0.00
2018-11-14T03:40:08.899Z,0.00
2018-11-14T03:41:08.842Z,0.00
2018-11-14T03:42:08.783Z,0.00
2018-11-14T03:43:08.726Z,0.00
2018-11-14T03:44:08.668Z,0.00
2018-11-14T03:45:08.615Z,0.00
2018-11-14T03:46:08.556Z,0.00
2018-11-14T03:47:08.496Z,0.00
2018-11-14T03:48:08.443Z,0.00
2018-11-14T03:49:08.384Z,0.00
2018-11-14T03:50:08.332Z,0.00
2018-11-14T03:51:08.272Z,0.00
2018-11-14T03:52:08.215Z,0.00
2018-11-14T03:53:08.157Z,0.00
2018-11-14T03:54:08.099Z,0.00
2018-11-14T03:55:08.039Z,0.00
2018-11-14T03:56:07.989Z,0.00
2018-11-14T03:57:07.927Z,0.00
2018-11-14T03:58:07.927Z,0.00
2018-11-14T03:59:07.818Z,0.00
2018-11-14T04:00:07.757Z,0.00
2018-11-14T04:01:07.699Z,0.00
2018-11-14T04:02:07.644Z,0.00
2018-11-14T04:03:07.584Z,0.00
2018-11-14T04:04:07.529Z,0.00
2018-11-14T04:05:07.472Z,0.00
2018-11-14T04:06:07.413Z,0.00
2018-11-14T04:07:07.355Z,0.00
2018-11-14T04:08:07.299Z,0.00
2018-11-14T04:09:07.317Z,0.00
2018-11-14T04:10:07.194Z,0.00
2018-11-14T04:11:07.127Z,0.00
2018-11-14T04:12:07.071Z,0.00
2018-11-14T04:13:07.013Z,0.00
2018-11-14T04:14:06.958Z,0.00
2018-11-14T04:15:06.898Z,0.00
2018-11-14T04:16:06.844Z,0.00
2018-11-14T04:17:06.785Z,0.00
2018-11-14T04:18:06.728Z,0.00
2018-11-14T04:19:06.673Z,0.00
2018-11-14T04:20:06.613Z,0.00
2018-11-14T04:21:06.561Z,0.00
2018-11-14T04:22:06.501Z,0.00
2018-11-14T04:23:06.584Z,0.00
2018-11-14T04:24:06.843Z,0.00
2018-11-14T04:25:06.355Z,0.00
2018-11-14T04:26:06.271Z,0.00
2018-11-14T04:27:06.213Z,0.00
2018-11-14T04:28:06.173Z,0.00
2018-11-14T04:29:06.099Z,0.00
2018-11-14T04:30:06.048Z,0.00
2018-11-14T04:31:05.986Z,0.00
2018-11-14T04:32:05.927Z,0.00
2018-11-14T04:33:05.870Z,0.00
2018-11-14T04:34:05.814Z,0.00
2018-11-14T04:35:05.756Z,0.00
2018-11-14T04:36:05.702Z,0.00
2018-11-14T04:37:05.642Z,0.00
2018-11-14T04:38:05.665Z,0.00
2018-11-14T04:39:05.526Z,0.00
2018-11-14T04:40:05.470Z,0.00
2018-11-14T04:41:05.413Z,0.00
2018-11-14T04:42:05.357Z,0.00
2018-11-14T04:43:05.300Z,0.00
2018-11-14T04:44:05.241Z,0.00
2018-11-14T04:45:05.185Z,0.00
2018-11-14T04:46:05.128Z,0.00
2018-11-14T04:47:05.073Z,0.00
2018-11-14T04:48:05.076Z,0.00
2018-11-14T04:49:04.956Z,0.00
2018-11-14T04:50:04.900Z,0.00
2018-11-14T04:51:04.842Z,0.00
2018-11-14T04:52:04.793Z,0.00
2018-11-14T04:53:04.727Z,0.00
2018-11-14T04:54:04.671Z,0.00
2018-11-14T04:55:04.611Z,0.00
2018-11-14T04:56:04.556Z,0.00
2018-11-14T04:57:04.501Z,0.00
2018-11-14T04:58:04.440Z,0.00
2018-11-14T04:59:04.383Z,0.00
2018-11-14T05:00:04.328Z,0.00
2018-11-14T05:01:04.268Z,0.00
2018-11-14T05:02:04.213Z,0.00
2018-11-14T05:03:04.156Z,0.00
2018-11-14T05:04:04.097Z,0.00
2018-11-14T05:05:04.041Z,0.00
2018-11-14T05:06:03.985Z,0.00
2018-11-14T05:07:03.925Z,0.00
2018-11-14T05:08:03.868Z,0.00
2018-11-14T05:09:03.810Z,0.00
2018-11-14T05:10:03.754Z,0.00
2018-11-14T05:11:03.698Z,0.00
2018-11-14T05:12:03.638Z,0.00
2018-11-14T05:13:03.633Z,0.00
2018-11-14T05:14:03.527Z,0.00
2018-11-14T05:15:03.470Z,0.00
2018-11-14T05:16:03.411Z,0.00
2018-11-14T05:17:03.357Z,0.00
2018-11-14T05:18:03.297Z,0.00
2018-11-14T05:19:03.238Z,0.00
2018-11-14T05:20:03.185Z,0.00
2018-11-14T05:21:03.124Z,0.00
2018-11-14T05:22:03.072Z,0.00
2018-11-14T05:23:03.012Z,0.00
2018-11-14T05:24:02.953Z,0.00
2018-11-14T05:25:02.903Z,0.00
2018-11-14T05:26:02.839Z,0.00
2018-11-14T05:27:02.781Z,0.00
2018-11-14T05:28:02.725Z,0.00
2018-11-14T05:29:02.666Z,0.00
2018-11-14T05:30:02.624Z,0.00
2018-11-14T05:31:02.550Z,0.00
2018-11-14T05:32:02.572Z,0.00
2018-11-14T05:33:02.439Z,0.00
2018-11-14T05:34:02.380Z,0.00
2018-11-14T05:35:02.327Z,0.00
2018-11-14T05:36:02.282Z,0.00
2018-11-14T05:37:02.216Z,0.00
2018-11-14T05:38:02.153Z,0.00
2018-11-14T05:39:02.091Z,0.00
2018-11-14T05:40:02.065Z,0.00
2018-11-14T05:41:02.028Z,0.00
2018-11-14T05:42:01.923Z,0.00
2018-11-14T05:43:01.862Z,0.00
2018-11-14T05:44:01.806Z,0.00
2018-11-14T05:45:01.750Z,0.00
2018-11-14T05:46:01.690Z,0.00
2018-11-14T05:47:01.633Z,0.00
2018-11-14T05:48:01.577Z,0.00
2018-11-14T05:49:01.520Z,0.00
2018-11-14T05:50:01.461Z,0.00
2018-11-14T05:51:01.405Z,0.00
2018-11-14T05:52:01.348Z,0.00
2018-11-14T05:53:01.288Z,0.00
2018-11-14T05:54:01.232Z,0.00
2018-11-14T05:55:01.225Z,0.00
2018-11-14T05:56:01.119Z,0.00
2018-11-14T05:57:01.060Z,0.00
2018-11-14T05:58:01.003Z,0.00
2018-11-14T05:59:00.947Z,0.00
2018-11-14T06:00:00.888Z,0.00
2018-11-14T06:01:00.829Z,0.00
2018-11-14T06:02:00.774Z,0.00
2018-11-14T06:03:00.714Z,0.00
2018-11-14T06:04:00.661Z,0.00
2018-11-14T06:05:00.599Z,0.00
2018-11-14T06:06:00.542Z,0.00
2018-11-14T06:07:00.523Z,0.00
2018-11-14T06:08:00.427Z,0.00
2018-11-14T06:09:00.374Z,0.00
2018-11-14T06:10:00.314Z,0.00
2018-11-14T06:11:00.255Z,0.00
2018-11-14T06:12:00.197Z,0.00
2018-11-14T06:13:00.140Z,0.00
2018-11-14T06:14:00.084Z,0.00
2018-11-14T06:15:00.029Z,0.00
2018-11-14T06:15:59.979Z,0.00
2018-11-14T06:16:59.920Z,0.00
2018-11-14T06:17:59.854Z,0.00
2018-11-14T06:18:59.844Z,0.00
2018-11-14T06:19:59.739Z,0.00
2018-11-14T06:20:59.681Z,0.00
2018-11-14T06:21:59.775Z,0.00
2018-11-14T06:22:59.566Z,0.00
2018-11-14T06:23:59.509Z,0.00
2018-11-14T06:24:59.454Z,0.00
2018-11-14T06:25:59.393Z,0.00
2018-11-14T06:26:59.336Z,0.00
2018-11-14T06:27:59.279Z,0.00
2018-11-14T06:28:59.222Z,0.00
2018-11-14T06:29:59.286Z,0.00
2018-11-14T06:30:59.107Z,0.00
2018-11-14T06:31:59.050Z,0.00
2018-11-14T06:32:58.991Z,0.00
2018-11-14T06:33:58.935Z,0.00
2018-11-14T06:34:58.877Z,0.00
2018-11-14T06:35:58.819Z,0.00
2018-11-14T06:36:58.762Z,0.00
2018-11-14T06:37:58.704Z,0.00
2018-11-14T06:38:58.647Z,0.00
2018-11-14T06:39:58.590Z,0.00
2018-11-14T06:40:58.535Z,0.00
2018-11-14T06:41:58.475Z,0.00
2018-11-14T06:42:58.417Z,0.00
2018-11-14T06:43:58.371Z,0.00
2018-11-14T06:44:58.306Z,0.00
2018-11-14T06:45:58.249Z,0.00
2018-11-14T06:46:58.189Z,0.00
2018-11-14T06:47:58.130Z,0.00
2018-11-14T06:48:58.073Z,0.00
2018-11-14T06:49:58.042Z,0.00
2018-11-14T06:50:57.959Z,0.00
2018-11-14T06:51:57.903Z,0.00
2018-11-14T06:52:57.845Z,0.00
2018-11-14T06:53:57.786Z,0.00
2018-11-14T06:54:57.726Z,0.00
2018-11-14T06:55:57.675Z,0.00
2018-11-14T06:56:57.613Z,0.00
2018-11-14T06:57:57.561Z,0.00
2018-11-14T06:58:57.632Z,0.00
2018-11-14T06:59:57.529Z,0.00
2018-11-14T07:00:57.383Z,0.00
2018-11-14T07:01:57.323Z,0.00
2018-11-14T07:02:57.266Z,0.00
2018-11-14T07:03:57.209Z,0.00
2018-11-14T07:04:57.187Z,0.00
2018-11-14T07:05:57.224Z,0.00
2018-11-14T07:06:57.037Z,0.00
2018-11-14T07:07:56.983Z,0.00
2018-11-14T07:08:56.922Z,0.00
2018-11-14T07:09:56.864Z,0.00
2018-11-14T07:10:56.863Z,0.00
2018-11-14T07:11:56.749Z,0.00
2018-11-14T07:12:56.691Z,4.00
2018-11-14T07:13:56.634Z,4.00
2018-11-14T07:14:56.577Z,4.00
2018-11-14T07:15:56.522Z,4.00
2018-11-14T07:16:56.461Z,0.00
2018-11-14T07:17:56.455Z,0.00
2018-11-14T07:18:56.347Z,0.00
2018-11-14T07:19:56.702Z,0.00
2018-11-14T07:20:56.233Z,0.00
2018-11-14T07:21:56.177Z,0.00
2018-11-14T07:22:56.115Z,4.00
2018-11-14T07:23:56.057Z,4.00
2018-11-14T07:24:56.003Z,0.00
2018-11-14T07:25:55.945Z,0.00
2018-11-14T07:26:55.885Z,0.00
2018-11-14T07:27:55.830Z,0.00
2018-11-14T07:28:55.770Z,0.00
2018-11-14T07:29:55.713Z,4.00
2018-11-14T07:30:55.654Z,0.00
2018-11-14T07:31:55.672Z,0.00
2018-11-14T07:32:55.546Z,0.00
2018-11-14T07:33:55.482Z,0.00
2018-11-14T07:34:55.424Z,0.00
2018-11-14T07:35:55.367Z,0.00
2018-11-14T07:36:55.318Z,4.00
2018-11-14T07:37:55.310Z,4.00
2018-11-14T07:38:55.198Z,0.00
2018-11-14T07:39:55.138Z,4.00
2018-11-14T07:40:55.079Z,4.00
2018-11-14T07:41:55.022Z,4.00
2018-11-14T07:42:54.966Z,4.00
2018-11-14T07:43:54.916Z,4.00
2018-11-14T07:44:54.849Z,4.00
2018-11-14T07:45:54.796Z,4.00
2018-11-14T07:46:54.732Z,4.00
2018-11-14T07:47:54.687Z,0.00
2018-11-14T07:48:54.642Z,4.00
2018-11-14T07:49:54.601Z,4.00
2018-11-14T07:50:54.510Z,4.00
2018-11-14T07:51:54.445Z,4.00
2018-11-14T07:52:54.389Z,4.00
2018-11-14T07:53:54.331Z,4.00
2018-11-14T07:54:54.276Z,4.00
2018-11-14T07:55:54.259Z,4.00
2018-11-14T07:56:54.157Z,4.00
2018-11-14T07:57:54.100Z,8.00
2018-11-14T07:58:54.042Z,4.00
2018-11-14T07:59:53.984Z,8.00
2018-11-14T08:00:53.926Z,8.00
2018-11-14T08:01:53.900Z,4.00
2018-11-14T08:02:53.810Z,4.00
2018-11-14T08:03:53.753Z,4.00
2018-11-14T08:04:53.696Z,8.00
2018-11-14T08:05:53.639Z,8.00
2018-11-14T08:06:53.580Z,8.00
2018-11-14T08:07:53.613Z,8.00
2018-11-14T08:08:53.469Z,8.00
2018-11-14T08:09:53.408Z,8.00
2018-11-14T08:10:53.351Z,8.00
2018-11-14T08:11:53.292Z,8.00
2018-11-14T08:12:53.234Z,8.00
2018-11-14T08:13:53.177Z,8.00
2018-11-14T08:14:53.119Z,8.00
2018-11-14T08:15:53.063Z,8.00
2018-11-14T08:16:53.004Z,8.00
2018-11-14T08:17:52.946Z,8.00
2018-11-14T08:18:52.935Z,8.00
2018-11-14T08:19:52.831Z,12.00
2018-11-14T08:20:52.772Z,8.00
2018-11-14T08:21:52.715Z,8.00
2018-11-14T08:22:52.658Z,8.00
2018-11-14T08:23:52.604Z,8.00
2018-11-14T08:24:52.555Z,8.00
2018-11-14T08:25:52.485Z,8.00
2018-11-14T08:26:52.427Z,8.00
2018-11-14T08:27:52.370Z,8.00
2018-11-14T08:28:52.312Z,8.00
2018-11-14T08:29:52.254Z,8.00
2018-11-14T08:30:52.197Z,8.00
2018-11-14T08:31:52.140Z,12.00
2018-11-14T08:32:52.085Z,8.00
2018-11-14T08:33:52.027Z,12.00
2018-11-14T08:34:51.965Z,12.00
2018-11-14T08:35:51.908Z,12.00
2018-11-14T08:36:51.851Z,12.00
2018-11-14T08:37:51.796Z,16.00
2018-11-14T08:38:51.735Z,12.00
2018-11-14T08:39:51.678Z,16.00
2018-11-14T08:40:51.620Z,16.00
2018-11-14T08:41:51.564Z,12.00
2018-11-14T08:42:51.507Z,12.00
2018-11-14T08:43:51.446Z,12.00
2018-11-14T08:44:51.391Z,16.00
2018-11-14T08:45:51.332Z,16.00
2018-11-14T08:46:51.274Z,12.00
2018-11-14T08:47:51.216Z,16.00
2018-11-14T08:48:51.158Z,12.00
2018-11-14T08:49:51.103Z,12.00
2018-11-14T08:50:51.042Z,12.00
2018-11-14T08:51:50.986Z,16.00
2018-11-14T08:52:50.928Z,16.00
2018-11-14T08:53:50.870Z,16.00
2018-11-14T08:54:50.811Z,16.00
2018-11-14T08:55:50.753Z,16.00
2018-11-14T08:56:50.698Z,16.00
2018-11-14T08:57:50.646Z,16.00
2018-11-14T08:58:50.581Z,16.00
2018-11-14T08:59:50.527Z,16.00
2018-11-14T09:00:50.466Z,16.00
2018-11-14T09:01:50.408Z,16.00
2018-11-14T09:02:50.356Z,16.00
2018-11-14T09:03:50.300Z,16.00
2018-11-14T09:04:50.235Z,16.00
2018-11-14T09:05:50.177Z,16.00
2018-11-14T09:06:50.122Z,20.00
2018-11-14T09:07:50.135Z,16.00
2018-11-14T09:08:50.004Z,16.00
2018-11-14T09:09:49.947Z,16.00
2018-11-14T09:10:49.928Z,16.00
2018-11-14T09:11:49.834Z,20.00
2018-11-14T09:12:49.821Z,20.00
2018-11-14T09:13:49.719Z,20.00
2018-11-14T09:14:49.660Z,20.00
2018-11-14T09:15:49.603Z,20.00
2018-11-14T09:16:49.543Z,20.00
2018-11-14T09:17:49.486Z,20.00
2018-11-14T09:18:49.532Z,24.00
2018-11-14T09:19:49.369Z,24.00
2018-11-14T09:20:49.311Z,24.00
2018-11-14T09:21:49.255Z,24.00
2018-11-14T09:22:49.196Z,28.00
2018-11-14T09:23:49.176Z,28.00
2018-11-14T09:24:49.115Z,24.00
2018-11-14T09:25:49.023Z,24.00
2018-11-14T09:26:48.965Z,28.00
2018-11-14T09:27:48.908Z,24.00
2018-11-14T09:28:48.850Z,28.00
2018-11-14T09:29:48.792Z,28.00
2018-11-14T09:30:48.734Z,32.00
2018-11-14T09:31:48.676Z,36.00
2018-11-14T09:32:48.624Z,36.00
2018-11-14T09:33:48.562Z,40.00
2018-11-14T09:34:48.504Z,40.00
2018-11-14T09:35:48.446Z,44.00
2018-11-14T09:36:48.390Z,44.00
2018-11-14T09:37:48.357Z,48.00
2018-11-14T09:38:48.274Z,52.00
2018-11-14T09:39:48.216Z,52.00
2018-11-14T09:40:48.228Z,52.00
2018-11-14T09:41:48.100Z,56.00
2018-11-14T09:42:48.044Z,56.00
2018-11-14T09:43:48.038Z,52.00
2018-11-14T09:44:47.930Z,56.00
2018-11-14T09:45:47.871Z,52.00
2018-11-14T09:46:47.811Z,48.00
2018-11-14T09:47:47.753Z,44.00
2018-11-14T09:48:47.698Z,40.00
2018-11-14T09:49:47.639Z,40.00
2018-11-14T09:50:47.581Z,36.00
2018-11-14T09:51:47.525Z,36.00
2018-11-14T09:52:47.467Z,32.00
2018-11-14T09:53:47.413Z,32.00
2018-11-14T09:54:47.351Z,32.00
2018-11-14T09:55:47.292Z,32.00
2018-11-14T09:56:47.274Z,36.00
2018-11-14T09:57:47.185Z,36.00
2018-11-14T09:58:47.166Z,36.00
2018-11-14T09:59:47.063Z,36.00
2018-11-14T10:00:47.011Z,48.00
2018-11-14T10:01:46.946Z,48.00
2018-11-14T10:02:46.953Z,44.00
2018-11-14T10:03:46.834Z,40.00
2018-11-14T10:04:46.776Z,36.00
2018-11-14T10:05:46.724Z,40.00
2018-11-14T10:06:46.661Z,40.00
2018-11-14T10:07:46.602Z,40.00
2018-11-14T10:08:46.607Z,32.00
2018-11-14T10:09:46.486Z,40.00
2018-11-14T10:10:46.475Z,40.00
2018-11-14T10:11:46.371Z,40.00
2018-11-14T10:12:46.313Z,40.00
2018-11-14T10:13:46.256Z,40.00
2018-11-14T10:14:46.200Z,36.00
2018-11-14T10:15:46.187Z,36.00
2018-11-14T10:16:46.083Z,40.00
2018-11-14T10:17:46.026Z,40.00
2018-11-14T10:18:45.969Z,36.00
2018-11-14T10:19:45.910Z,36.00
2018-11-14T10:20:45.852Z,40.00
2018-11-14T10:21:45.807Z,36.00
2018-11-14T10:22:45.738Z,40.00
2018-11-14T10:23:45.680Z,32.00
2018-11-14T10:24:45.623Z,36.00
2018-11-14T10:25:45.565Z,36.00
2018-11-14T10:26:45.506Z,36.00
2018-11-14T10:27:45.449Z,36.00
2018-11-14T10:28:45.394Z,36.00
2018-11-14T10:29:45.341Z,36.00
2018-11-14T10:30:45.339Z,36.00
2018-11-14T10:31:45.304Z,36.00
2018-11-14T10:32:45.163Z,40.00
2018-11-14T10:33:45.105Z,36.00
2018-11-14T10:34:45.047Z,36.00
2018-11-14T10:35:44.989Z,36.00
2018-11-14T10:36:44.934Z,36.00
2018-11-14T10:37:44.875Z,36.00
2018-11-14T10:38:44.815Z,36.00
2018-11-14T10:39:44.759Z,32.00
2018-11-14T10:40:44.703Z,36.00
2018-11-14T10:41:44.644Z,32.00
2018-11-14T10:42:44.636Z,32.00
2018-11-14T10:43:44.530Z,32.00
2018-11-14T10:44:44.472Z,32.00
2018-11-14T10:45:44.413Z,28.00
2018-11-14T10:46:44.360Z,28.00
2018-11-14T10:47:44.301Z,32.00
2018-11-14T10:48:44.241Z,28.00
2018-11-14T10:49:44.187Z,28.00
2018-11-14T10:50:44.131Z,24.00
2018-11-14T10:51:44.068Z,28.00
2018-11-14T10:52:44.013Z,24.00
2018-11-14T10:53:43.957Z,24.00
2018-11-14T10:54:43.895Z,28.00
2018-11-14T10:55:43.842Z,28.00
2018-11-14T10:56:43.785Z,28.00
2018-11-14T10:57:43.722Z,28.00
2018-11-14T10:58:43.666Z,24.00
2018-11-14T10:59:43.612Z,28.00
2018-11-14T11:00:43.561Z,28.00
2018-11-14T11:01:43.493Z,28.00
2018-11-14T11:02:43.436Z,32.00
2018-11-14T11:03:43.379Z,36.00
2018-11-14T11:04:43.324Z,32.00
2018-11-14T11:05:43.264Z,36.00
2018-11-14T11:06:43.207Z,36.00
2018-11-14T11:07:43.166Z,36.00
2018-11-14T11:08:43.205Z,40.00
2018-11-14T11:09:43.035Z,36.00
2018-11-14T11:10:42.979Z,40.00
2018-11-14T11:11:42.919Z,36.00
2018-11-14T11:12:42.866Z,36.00
2018-11-14T11:13:42.823Z,40.00
2018-11-14T11:14:42.748Z,40.00
2018-11-14T11:15:42.690Z,36.00
2018-11-14T11:16:42.632Z,40.00
2018-11-14T11:17:42.577Z,40.00
2018-11-14T11:18:42.525Z,36.00
2018-11-14T11:19:42.459Z,40.00
2018-11-14T11:20:42.405Z,36.00
2018-11-14T11:21:42.346Z,36.00
2018-11-14T11:22:42.288Z,36.00
2018-11-14T11:23:42.231Z,36.00
2018-11-14T11:24:42.172Z,32.00
2018-11-14T11:25:42.114Z,36.00
2018-11-14T11:26:42.057Z,36.00
2018-11-14T11:27:42.000Z,36.00
2018-11-14T11:28:41.944Z,32.00
2018-11-14T11:29:41.886Z,32.00
2018-11-14T11:30:41.850Z,32.00
2018-11-14T11:31:41.770Z,32.00
2018-11-14T11:32:41.714Z,32.00
2018-11-14T11:33:41.658Z,32.00
2018-11-14T11:34:41.597Z,36.00
2018-11-14T11:35:41.541Z,32.00
2018-11-14T11:36:41.483Z,28.00
2018-11-14T11:37:41.425Z,32.00
2018-11-14T11:38:41.369Z,32.00
2018-11-14T11:39:41.310Z,32.00
2018-11-14T11:40:41.256Z,32.00
2018-11-14T11:41:41.197Z,32.00
2018-11-14T11:42:41.140Z,32.00
2018-11-14T11:43:41.083Z,32.00
2018-11-14T11:44:41.025Z,32.00
2018-11-14T11:45:40.968Z,32.00
2018-11-14T11:46:40.912Z,28.00
2018-11-14T11:47:40.853Z,28.00
2018-11-14T11:48:40.800Z,28.00
2018-11-14T11:49:40.738Z,28.00
2018-11-14T11:50:40.682Z,24.00
2018-11-14T11:51:40.625Z,28.00
2018-11-14T11:52:40.566Z,24.00
2018-11-14T11:53:40.509Z,24.00
2018-11-14T11:54:40.451Z,24.00
2018-11-14T11:55:40.400Z,28.00
2018-11-14T11:56:40.336Z,28.00
2018-11-14T11:57:40.330Z,28.00
2018-11-14T11:58:40.221Z,28.00
2018-11-14T11:59:40.284Z,24.00
2018-11-14T12:00:40.328Z,28.00
2018-11-14T12:01:40.050Z,28.00
2018-11-14T12:02:39.995Z,28.00
2018-11-14T12:03:39.939Z,28.00
2018-11-14T12:04:39.879Z,28.00
2018-11-14T12:05:40.716Z,24.00
2018-11-14T12:06:39.767Z,28.00
2018-11-14T12:07:39.720Z,24.00
2018-11-14T12:08:39.649Z,24.00
2018-11-14T12:09:39.606Z,24.00
2018-11-14T12:10:39.599Z,24.00
2018-11-14T12:11:39.477Z,28.00
2018-11-14T12:12:39.423Z,24.00
2018-11-14T12:13:39.432Z,24.00
2018-11-14T12:14:39.307Z,28.00
2018-11-14T12:15:39.248Z,24.00
2018-11-14T12:16:39.195Z,24.00
2018-11-14T12:17:39.191Z,24.00
2018-11-14T12:18:39.083Z,24.00
2018-11-14T12:19:39.018Z,24.00
2018-11-14T12:20:38.962Z,24.00
2018-11-14T12:21:38.910Z,24.00
2018-11-14T12:22:38.848Z,24.00
2018-11-14T12:23:38.848Z,24.00
2018-11-14T12:24:38.733Z,24.00
2018-11-14T12:25:38.682Z,24.00
2018-11-14T12:26:38.620Z,28.00
2018-11-14T12:27:38.636Z,24.00
2018-11-14T12:28:38.511Z,24.00
2018-11-14T12:29:38.447Z,28.00
2018-11-14T12:30:38.560Z,28.00
2018-11-14T12:31:38.334Z,28.00
2018-11-14T12:32:38.381Z,28.00
2018-11-14T12:33:38.219Z,24.00
2018-11-14T12:34:38.213Z,28.00
2018-11-14T12:35:38.159Z,28.00
2018-11-14T12:36:38.048Z,24.00
2018-11-14T12:37:37.990Z,24.00
2018-11-14T12:38:37.996Z,24.00
2018-11-14T12:39:37.874Z,28.00
2018-11-14T12:40:37.818Z,24.00
2018-11-14T12:41:37.761Z,24.00
2018-11-14T12:42:37.705Z,28.00
2018-11-14T12:43:37.657Z,24.00
2018-11-14T12:44:37.589Z,24.00
2018-11-14T12:45:37.532Z,24.00
2018-11-14T12:46:37.481Z,24.00
2018-11-14T12:47:37.418Z,28.00
2018-11-14T12:48:37.359Z,28.00
2018-11-14T12:49:37.303Z,28.00
2018-11-14T12:50:37.253Z,28.00
2018-11-14T12:51:37.188Z,28.00
2018-11-14T12:52:37.185Z,24.00
2018-11-14T12:53:37.074Z,24.00
2018-11-14T12:54:37.017Z,24.00
2018-11-14T12:55:36.967Z,28.00
2018-11-14T12:56:36.910Z,24.00
2018-11-14T12:57:36.846Z,24.00
2018-11-14T12:58:36.788Z,24.00
2018-11-14T12:59:36.832Z,24.00
2018-11-14T13:00:36.674Z,28.00
2018-11-14T13:01:36.618Z,24.00
2018-11-14T13:02:36.562Z,24.00
2018-11-14T13:03:36.508Z,24.00
2018-11-14T13:04:36.445Z,28.00
2018-11-14T13:05:36.389Z,28.00
2018-11-14T13:06:36.331Z,28.00
2018-11-14T13:07:36.273Z,28.00
2018-11-14T13:08:36.221Z,28.00